St Leonards-on-Sea, United Kingdom
Current Conditions -  °F | °C
As of 10:20 AM on Sunday 25 Jan 2015 (Local Time) from EGMD Reporting Station
Clear Clear  
Wind Chill:   Ceiling: Unl
Heat Index:   Visibility: 6mi
Dew Point:   Wind: 3mph
Humidity: 87%   Direction: 260°W
Pressure: 30.48"   Gusts: NA
Location:  50.85°N, 0.56°E
Report Text: EGMD 251020Z 26003KT CAVOK 04/02 Q1032
Loading
Personal Weather Stations






























Interactive Weather Map New forecast layout! Learn more

10-Day Weather Forecast

Advertisements
Track Severe Weather on mobile